createdAt,value
2018-12-29T00:00:28.341Z,34.00
2018-12-29T00:01:28.332Z,33.00
2018-12-29T00:02:28.324Z,33.09
2018-12-29T00:03:28.308Z,32.90
2018-12-29T00:04:28.299Z,34.20
2018-12-29T00:05:28.288Z,34.29
2018-12-29T00:06:28.275Z,34.90
2018-12-29T00:07:28.275Z,33.20
2018-12-29T00:08:28.255Z,34.29
2018-12-29T00:09:28.243Z,35.00
2018-12-29T00:10:28.231Z,32.50
2018-12-29T00:11:28.219Z,33.09
2018-12-29T00:12:28.209Z,33.20
2018-12-29T00:13:28.198Z,34.40
2018-12-29T00:14:28.188Z,35.00
2018-12-29T00:15:28.178Z,33.79
2018-12-29T00:16:28.167Z,35.90
2018-12-29T00:17:28.158Z,35.20
2018-12-29T00:18:28.147Z,34.29
2018-12-29T00:19:28.135Z,32.59
2018-12-29T00:20:28.124Z,33.79
2018-12-29T00:21:28.114Z,33.59
2018-12-29T00:22:28.173Z,33.79
2018-12-29T00:23:28.090Z,33.29
2018-12-29T00:24:28.082Z,31.70
2018-12-29T00:25:28.070Z,32.59
2018-12-29T00:26:28.081Z,32.00
2018-12-29T00:27:28.050Z,31.10
2018-12-29T00:28:28.036Z,31.60
2018-12-29T00:29:28.026Z,32.90
2018-12-29T00:30:28.015Z,32.29
2018-12-29T00:31:28.003Z,31.60
2018-12-29T00:32:27.992Z,30.89
2018-12-29T00:33:27.984Z,31.00
2018-12-29T00:34:27.973Z,30.29
2018-12-29T00:35:27.962Z,32.09
2018-12-29T00:36:27.953Z,32.09
2018-12-29T00:37:27.940Z,31.39
2018-12-29T00:38:27.930Z,31.10
2018-12-29T00:39:27.919Z,31.50
2018-12-29T00:40:27.909Z,31.50
2018-12-29T00:41:27.898Z,31.20
2018-12-29T00:42:27.887Z,30.89
2018-12-29T00:43:27.875Z,32.79
2018-12-29T00:44:27.865Z,33.00
2018-12-29T00:45:27.853Z,33.00
2018-12-29T00:46:27.841Z,33.20
2018-12-29T00:47:27.832Z,34.00
2018-12-29T00:48:27.821Z,32.00
2018-12-29T00:49:27.809Z,32.70
2018-12-29T00:50:27.802Z,32.09
2018-12-29T00:51:27.792Z,32.00
2018-12-29T00:52:27.779Z,32.09
2018-12-29T00:53:27.769Z,33.20
2018-12-29T00:54:27.761Z,33.09
2018-12-29T00:55:27.748Z,32.20
2018-12-29T00:56:27.737Z,33.00
2018-12-29T00:57:27.723Z,33.29
2018-12-29T00:58:27.713Z,33.09
2018-12-29T00:59:27.703Z,31.89
2018-12-29T01:00:27.691Z,32.20
2018-12-29T01:01:27.681Z,32.79
2018-12-29T01:02:27.672Z,31.50
2018-12-29T01:03:27.660Z,30.70
2018-12-29T01:04:27.650Z,32.09
2018-12-29T01:05:27.637Z,32.09
2018-12-29T01:06:27.626Z,32.70
2018-12-29T01:07:27.616Z,33.40
2018-12-29T01:08:27.607Z,32.70
2018-12-29T01:09:27.595Z,32.40
2018-12-29T01:10:27.583Z,32.29
2018-12-29T01:11:27.574Z,31.89
2018-12-29T01:12:27.568Z,32.90
2018-12-29T01:13:27.551Z,31.39
2018-12-29T01:14:27.539Z,32.79
2018-12-29T01:15:27.528Z,33.90
2018-12-29T01:16:27.517Z,34.09
2018-12-29T01:17:27.508Z,34.09
2018-12-29T01:18:27.496Z,34.00
2018-12-29T01:19:27.488Z,35.00
2018-12-29T01:20:27.475Z,32.50
2018-12-29T01:21:27.466Z,32.70
2018-12-29T01:22:27.453Z,32.50
2018-12-29T01:23:27.443Z,31.70
2018-12-29T01:24:27.432Z,34.09
2018-12-29T01:25:27.422Z,35.50
2018-12-29T01:26:27.411Z,34.90
2018-12-29T01:27:27.401Z,34.00
2018-12-29T01:28:27.398Z,34.59
2018-12-29T01:29:27.382Z,33.09
2018-12-29T01:30:27.368Z,34.09
2018-12-29T01:31:27.358Z,33.20
2018-12-29T01:32:27.347Z,34.59
2018-12-29T01:33:27.334Z,34.50
2018-12-29T01:34:27.323Z,33.59
2018-12-29T01:35:27.316Z,35.20
2018-12-29T01:36:27.301Z,35.40
2018-12-29T01:37:27.293Z,35.70
2018-12-29T01:38:27.282Z,37.70
2018-12-29T01:39:27.270Z,36.09
2018-12-29T01:40:27.259Z,35.70
2018-12-29T01:41:27.249Z,36.00
2018-12-29T01:42:27.237Z,35.09
2018-12-29T01:43:27.228Z,35.09
2018-12-29T01:44:27.215Z,35.40
2018-12-29T01:45:27.203Z,34.20
2018-12-29T01:46:27.193Z,35.50
2018-12-29T01:47:27.190Z,35.79
2018-12-29T01:48:27.173Z,35.59
2018-12-29T01:49:27.169Z,34.09
2018-12-29T01:50:27.150Z,34.40
2018-12-29T01:51:27.140Z,36.20
2018-12-29T01:52:27.128Z,34.50
2018-12-29T01:53:27.117Z,34.29
2018-12-29T01:54:27.106Z,35.00
2018-12-29T01:55:27.097Z,35.29
2018-12-29T01:56:27.085Z,37.00
2018-12-29T01:57:27.075Z,35.20
2018-12-29T01:58:27.063Z,34.40
2018-12-29T01:59:27.052Z,33.20
2018-12-29T02:00:27.057Z,32.70
2018-12-29T02:01:27.031Z,33.29
2018-12-29T02:02:27.023Z,34.29
2018-12-29T02:03:27.012Z,33.90
2018-12-29T02:04:26.997Z,34.90
2018-12-29T02:05:26.990Z,34.90
2018-12-29T02:06:26.975Z,34.70
2018-12-29T02:07:26.964Z,33.20
2018-12-29T02:08:26.953Z,32.50
2018-12-29T02:09:26.943Z,32.70
2018-12-29T02:10:26.935Z,33.79
2018-12-29T02:11:26.921Z,33.50
2018-12-29T02:12:26.911Z,35.09
2018-12-29T02:13:26.899Z,35.40
2018-12-29T02:14:26.891Z,35.29
2018-12-29T02:15:26.878Z,34.20
2018-12-29T02:16:26.868Z,36.09
2018-12-29T02:17:26.856Z,35.29
2018-12-29T02:18:26.847Z,35.59
2018-12-29T02:19:26.836Z,36.29
2018-12-29T02:20:26.828Z,36.20
2018-12-29T02:21:26.816Z,34.00
2018-12-29T02:22:26.802Z,35.50
2018-12-29T02:23:26.792Z,34.09
2018-12-29T02:24:26.782Z,34.09
2018-12-29T02:25:26.774Z,34.59
2018-12-29T02:26:26.758Z,34.09
2018-12-29T02:27:26.754Z,35.70
2018-12-29T02:28:26.741Z,34.90
2018-12-29T02:29:26.725Z,32.70
2018-12-29T02:30:26.719Z,34.50
2018-12-29T02:31:26.706Z,33.29
2018-12-29T02:32:26.694Z,33.09
2018-12-29T02:33:26.687Z,34.29
2018-12-29T02:34:26.676Z,34.90
2018-12-29T02:35:26.664Z,34.59
2018-12-29T02:36:26.651Z,34.79
2018-12-29T02:37:26.640Z,33.00
2018-12-29T02:38:26.629Z,33.59
2018-12-29T02:39:26.633Z,35.20
2018-12-29T02:40:26.607Z,35.90
2018-12-29T02:41:26.596Z,36.20
2018-12-29T02:42:26.587Z,34.40
2018-12-29T02:43:26.573Z,33.40
2018-12-29T02:44:26.562Z,34.20
2018-12-29T02:45:33.022Z,34.79
2018-12-29T02:46:47.723Z,30.79
2018-12-29T02:47:47.710Z,31.20
2018-12-29T02:48:47.701Z,33.79
2018-12-29T02:49:47.699Z,34.29
2018-12-29T02:50:47.679Z,35.79
2018-12-29T02:51:47.671Z,35.29
2018-12-29T02:52:47.657Z,35.79
2018-12-29T02:53:47.647Z,35.40
2018-12-29T02:54:47.635Z,34.70
2018-12-29T02:55:47.629Z,34.79
2018-12-29T02:56:47.616Z,35.50
2018-12-29T02:57:47.609Z,36.20
2018-12-29T02:58:47.592Z,33.59
2018-12-29T02:59:47.583Z,36.09
2018-12-29T03:00:47.569Z,35.20
2018-12-29T03:01:47.559Z,36.20
2018-12-29T03:02:47.547Z,34.29
2018-12-29T03:03:47.540Z,34.59
2018-12-29T03:04:47.527Z,35.00
2018-12-29T03:05:47.516Z,35.70
2018-12-29T03:06:47.506Z,36.09
2018-12-29T03:07:47.494Z,33.90
2018-12-29T03:08:47.483Z,35.90
2018-12-29T03:09:47.474Z,34.40
2018-12-29T03:10:47.463Z,37.79
2018-12-29T03:11:47.453Z,35.70
2018-12-29T03:12:47.440Z,35.40
2018-12-29T03:13:47.431Z,35.40
2018-12-29T03:14:47.418Z,34.90
2018-12-29T03:15:47.408Z,33.00
2018-12-29T03:16:47.396Z,34.00
2018-12-29T03:17:47.386Z,34.90
2018-12-29T03:18:47.374Z,35.40
2018-12-29T03:19:47.367Z,34.40
2018-12-29T03:20:47.355Z,34.40
2018-12-29T03:21:47.342Z,34.29
2018-12-29T03:22:47.331Z,33.70
2018-12-29T03:23:47.321Z,34.40
2018-12-29T03:24:47.309Z,34.59
2018-12-29T03:25:47.299Z,35.29
2018-12-29T03:26:47.289Z,36.20
2018-12-29T03:27:47.278Z,36.20
2018-12-29T03:28:47.267Z,36.00
2018-12-29T03:29:47.258Z,35.09
2018-12-29T03:30:47.267Z,37.09
2018-12-29T03:31:47.243Z,36.20
2018-12-29T03:32:47.230Z,33.40
2018-12-29T03:33:47.216Z,33.59
2018-12-29T03:34:47.202Z,35.79
2018-12-29T03:35:47.205Z,36.59
2018-12-29T03:36:47.181Z,36.70
2018-12-29T03:37:47.171Z,32.20
2018-12-29T03:38:47.159Z,33.59
2018-12-29T03:39:47.146Z,35.59
2018-12-29T03:40:47.137Z,35.40
2018-12-29T03:41:47.128Z,34.59
2018-12-29T03:42:47.114Z,34.29
2018-12-29T03:43:47.104Z,34.20
2018-12-29T03:44:47.095Z,35.50
2018-12-29T03:45:49.286Z,34.90
2018-12-29T03:46:47.074Z,36.29
2018-12-29T03:47:47.060Z,35.90
2018-12-29T03:48:47.048Z,36.59
2018-12-29T03:49:47.040Z,36.70
2018-12-29T03:50:47.029Z,35.50
2018-12-29T03:51:47.017Z,34.00
2018-12-29T03:52:47.006Z,34.90
2018-12-29T03:53:46.993Z,34.29
2018-12-29T03:54:46.984Z,36.40
2018-12-29T03:55:46.974Z,36.20
2018-12-29T03:56:46.964Z,35.90
2018-12-29T03:57:46.951Z,37.50
2018-12-29T03:58:46.941Z,35.70
2018-12-29T03:59:46.929Z,34.79
2018-12-29T04:00:46.919Z,36.29
2018-12-29T04:01:46.908Z,34.20
2018-12-29T04:02:46.898Z,33.50
2018-12-29T04:03:46.886Z,35.29
2018-12-29T04:04:46.878Z,35.79
2018-12-29T04:05:46.866Z,37.29
2018-12-29T04:06:46.854Z,35.70
2018-12-29T04:07:46.842Z,35.29
2018-12-29T04:08:46.832Z,36.59
2018-12-29T04:09:46.822Z,36.29
2018-12-29T04:10:46.810Z,35.50
2018-12-29T04:11:46.799Z,36.09
2018-12-29T04:12:46.789Z,35.90
2018-12-29T04:13:46.779Z,35.40
2018-12-29T04:14:46.768Z,35.50
2018-12-29T04:15:46.757Z,36.00
2018-12-29T04:16:46.752Z,35.70
2018-12-29T04:17:46.740Z,34.79
2018-12-29T04:18:46.725Z,35.09
2018-12-29T04:19:46.712Z,35.40
2018-12-29T04:20:46.702Z,36.70
2018-12-29T04:21:46.693Z,36.90
2018-12-29T04:22:46.688Z,39.40
2018-12-29T04:23:46.670Z,35.70
2018-12-29T04:24:46.658Z,36.50
2018-12-29T04:25:46.650Z,36.59
2018-12-29T04:26:46.637Z,35.50
2018-12-29T04:27:46.627Z,34.90
2018-12-29T04:28:46.616Z,36.79
2018-12-29T04:29:46.606Z,36.59
2018-12-29T04:30:46.594Z,35.79
2018-12-29T04:31:46.583Z,36.40
2018-12-29T04:32:46.573Z,35.29
2018-12-29T04:33:46.562Z,35.00
2018-12-29T04:34:46.549Z,37.59
2018-12-29T04:35:46.538Z,36.70
2018-12-29T04:36:46.529Z,36.20
2018-12-29T04:37:46.521Z,34.70
2018-12-29T04:38:46.509Z,34.59
2018-12-29T04:39:46.498Z,33.79
2018-12-29T04:40:46.486Z,34.90
2018-12-29T04:41:46.475Z,36.79
2018-12-29T04:42:46.473Z,36.50
2018-12-29T04:43:46.465Z,38.20
2018-12-29T04:44:46.444Z,38.20
2018-12-29T04:45:46.433Z,40.20
2018-12-29T04:46:46.421Z,40.09
2018-12-29T04:47:46.411Z,38.20
2018-12-29T04:48:46.398Z,36.79
2018-12-29T04:49:46.392Z,36.90
2018-12-29T04:50:46.375Z,34.90
2018-12-29T04:51:46.367Z,35.40
2018-12-29T04:52:46.357Z,37.20
2018-12-29T04:53:46.346Z,35.50
2018-12-29T04:54:46.339Z,36.29
2018-12-29T04:55:46.326Z,35.09
2018-12-29T04:56:46.313Z,34.50
2018-12-29T04:57:46.301Z,33.79
2018-12-29T04:58:46.297Z,34.29
2018-12-29T04:59:46.280Z,35.29
2018-12-29T05:00:46.269Z,36.00
2018-12-29T05:01:46.258Z,37.40
2018-12-29T05:02:46.258Z,32.90
2018-12-29T05:03:46.234Z,32.00
2018-12-29T05:04:46.226Z,36.29
2018-12-29T05:05:46.216Z,33.20
2018-12-29T05:06:46.204Z,35.90
2018-12-29T05:07:46.194Z,36.29
2018-12-29T05:08:46.183Z,34.40
2018-12-29T05:09:46.169Z,34.90
2018-12-29T05:10:46.161Z,37.29
2018-12-29T05:11:46.148Z,37.09
2018-12-29T05:12:46.142Z,35.90
2018-12-29T05:13:46.127Z,35.79
2018-12-29T05:14:46.115Z,37.29
2018-12-29T05:15:46.106Z,35.09
2018-12-29T05:16:46.097Z,34.79
2018-12-29T05:17:46.086Z,34.90
2018-12-29T05:18:46.075Z,37.09
2018-12-29T05:19:46.064Z,36.90
2018-12-29T05:20:46.052Z,36.29
2018-12-29T05:21:46.041Z,36.40
2018-12-29T05:22:46.032Z,37.50
2018-12-29T05:23:46.021Z,35.90
2018-12-29T05:24:46.009Z,35.90
2018-12-29T05:25:45.998Z,36.20
2018-12-29T05:26:45.989Z,33.90
2018-12-29T05:27:45.978Z,34.59
2018-12-29T05:28:45.967Z,37.29
2018-12-29T05:29:45.955Z,35.00
2018-12-29T05:30:45.942Z,36.70
2018-12-29T05:31:45.937Z,35.70
2018-12-29T05:32:45.921Z,33.90
2018-12-29T05:33:45.910Z,33.90
2018-12-29T05:34:45.903Z,32.50
2018-12-29T05:35:45.889Z,34.29
2018-12-29T05:36:45.879Z,33.79
2018-12-29T05:37:45.869Z,34.79
2018-12-29T05:38:45.859Z,35.70
2018-12-29T05:39:45.847Z,36.50
2018-12-29T05:40:45.835Z,35.20
2018-12-29T05:41:45.824Z,36.00
2018-12-29T05:42:45.815Z,35.00
2018-12-29T05:43:45.804Z,32.59
2018-12-29T05:44:45.791Z,33.20
2018-12-29T05:45:45.782Z,34.20
2018-12-29T05:46:45.770Z,34.40
2018-12-29T05:47:45.765Z,36.40
2018-12-29T05:48:45.750Z,35.50
2018-12-29T05:49:45.738Z,35.20
2018-12-29T05:50:45.727Z,35.29
2018-12-29T05:51:45.714Z,33.29
2018-12-29T05:52:45.707Z,33.09
2018-12-29T05:53:45.697Z,33.79
2018-12-29T05:54:45.686Z,32.40
2018-12-29T05:55:45.672Z,33.20
2018-12-29T05:56:45.662Z,33.29
2018-12-29T05:57:45.649Z,33.09
2018-12-29T05:58:45.640Z,35.50
2018-12-29T05:59:45.626Z,35.40
2018-12-29T06:00:45.618Z,31.39
2018-12-29T06:01:45.607Z,30.89
2018-12-29T06:02:45.595Z,31.10
2018-12-29T06:03:45.583Z,34.40
2018-12-29T06:04:45.573Z,32.90
2018-12-29T06:05:45.564Z,32.70
2018-12-29T06:06:45.559Z,31.10
2018-12-29T06:07:45.540Z,32.09
2018-12-29T06:08:45.543Z,32.29
2018-12-29T06:09:45.526Z,32.79
2018-12-29T06:10:45.509Z,31.00
2018-12-29T06:11:45.497Z,32.59
2018-12-29T06:12:45.487Z,33.09
2018-12-29T06:13:45.477Z,33.70
2018-12-29T06:14:45.465Z,32.00
2018-12-29T06:15:45.456Z,32.90
2018-12-29T06:16:45.445Z,33.20
2018-12-29T06:17:45.435Z,32.20
2018-12-29T06:18:45.423Z,30.79
2018-12-29T06:19:45.412Z,34.40
2018-12-29T06:20:45.403Z,34.20
2018-12-29T06:21:45.390Z,33.40
2018-12-29T06:22:45.380Z,34.90
2018-12-29T06:23:45.369Z,32.50
2018-12-29T06:24:45.359Z,33.09
2018-12-29T06:25:45.349Z,32.70
2018-12-29T06:26:45.335Z,32.20
2018-12-29T06:27:45.325Z,34.00
2018-12-29T06:28:45.317Z,34.29
2018-12-29T06:29:45.303Z,34.70
2018-12-29T06:30:45.293Z,33.79
2018-12-29T06:31:45.283Z,35.50
2018-12-29T06:32:45.271Z,34.09
2018-12-29T06:33:45.261Z,33.50
2018-12-29T06:34:45.249Z,34.40
2018-12-29T06:35:45.242Z,34.20
2018-12-29T06:36:45.227Z,35.29
2018-12-29T06:37:45.217Z,36.40
2018-12-29T06:38:45.209Z,34.40
2018-12-29T06:39:45.197Z,32.20
2018-12-29T06:40:45.189Z,32.79
2018-12-29T06:41:45.173Z,31.70
2018-12-29T06:42:45.163Z,32.40
2018-12-29T06:43:45.153Z,33.59
2018-12-29T06:44:45.141Z,34.50
2018-12-29T06:45:45.136Z,36.00
2018-12-29T06:46:45.123Z,36.90
2018-12-29T06:47:45.110Z,36.50
2018-12-29T06:48:45.096Z,35.70
2018-12-29T06:49:45.086Z,33.79
2018-12-29T06:50:45.078Z,35.90
2018-12-29T06:51:45.065Z,35.90
2018-12-29T06:52:45.054Z,35.50
2018-12-29T06:53:45.043Z,34.50
2018-12-29T06:54:45.032Z,34.50
2018-12-29T06:55:45.022Z,33.50
2018-12-29T06:56:45.010Z,34.70
2018-12-29T06:57:45.006Z,34.00
2018-12-29T06:58:44.987Z,31.79
2018-12-29T06:59:44.978Z,32.59
2018-12-29T07:00:44.969Z,32.79
2018-12-29T07:01:44.957Z,31.20
2018-12-29T07:02:44.944Z,31.60
2018-12-29T07:03:44.937Z,32.20
2018-12-29T07:04:44.926Z,31.89
2018-12-29T07:05:44.915Z,31.10
2018-12-29T07:06:44.901Z,31.60
2018-12-29T07:07:44.894Z,31.79
2018-12-29T07:08:44.885Z,32.20
2018-12-29T07:09:44.873Z,32.29
2018-12-29T07:10:44.858Z,32.59
2018-12-29T07:11:44.849Z,31.79
2018-12-29T07:12:44.838Z,32.79
2018-12-29T07:13:44.827Z,34.00
2018-12-29T07:14:44.831Z,32.90
2018-12-29T07:15:44.805Z,33.59
2018-12-29T07:16:44.796Z,35.40
2018-12-29T07:17:44.784Z,35.29
2018-12-29T07:18:44.773Z,37.20
2018-12-29T07:19:44.762Z,37.09
2018-12-29T07:20:44.751Z,33.59
2018-12-29T07:21:44.739Z,33.70
2018-12-29T07:22:44.728Z,34.09
2018-12-29T07:23:45.876Z,36.50
2018-12-29T07:24:44.708Z,36.50
2018-12-29T07:25:44.696Z,36.00
2018-12-29T07:26:44.687Z,37.40
2018-12-29T07:27:44.682Z,36.79
2018-12-29T07:28:44.665Z,35.00
2018-12-29T07:29:44.653Z,33.70
2018-12-29T07:30:44.644Z,35.20
2018-12-29T07:31:44.635Z,33.29
2018-12-29T07:32:44.620Z,32.59
2018-12-29T07:33:44.609Z,33.09
2018-12-29T07:34:44.604Z,32.79
2018-12-29T07:35:44.588Z,34.40
2018-12-29T07:36:44.576Z,34.00
2018-12-29T07:37:44.567Z,32.50
2018-12-29T07:38:44.555Z,31.39
2018-12-29T07:39:44.544Z,31.00
2018-12-29T07:40:44.535Z,33.29
2018-12-29T07:41:44.521Z,33.50
2018-12-29T07:42:44.511Z,35.90
2018-12-29T07:43:44.500Z,35.59
2018-12-29T07:44:44.488Z,34.50
2018-12-29T07:45:44.478Z,32.90
2018-12-29T07:46:49.508Z,31.60
2018-12-29T07:47:44.458Z,35.40
2018-12-29T07:48:44.454Z,36.40
2018-12-29T07:49:44.434Z,36.29
2018-12-29T07:50:44.426Z,35.90
2018-12-29T07:51:44.414Z,35.50
2018-12-29T07:52:44.405Z,34.29
2018-12-29T07:53:44.391Z,34.40
2018-12-29T07:54:44.383Z,32.70
2018-12-29T07:55:44.371Z,33.20
2018-12-29T07:56:44.369Z,32.40
2018-12-29T07:57:44.356Z,35.00
2018-12-29T07:58:44.336Z,35.00
2018-12-29T07:59:44.327Z,35.70
2018-12-29T08:00:44.317Z,32.59
2018-12-29T08:01:44.308Z,32.79
2018-12-29T08:02:44.293Z,31.39
2018-12-29T08:03:44.285Z,30.60
2018-12-29T08:04:44.272Z,34.40
2018-12-29T08:05:44.261Z,32.59
2018-12-29T08:06:44.251Z,32.70
2018-12-29T08:07:44.240Z,34.20
2018-12-29T08:08:44.233Z,33.79
2018-12-29T08:09:44.218Z,35.79
2018-12-29T08:10:44.210Z,31.70
2018-12-29T08:11:44.197Z,32.79
2018-12-29T08:12:44.187Z,31.60
2018-12-29T08:13:44.177Z,32.59
2018-12-29T08:14:44.168Z,33.79
2018-12-29T08:15:44.166Z,34.29
2018-12-29T08:16:44.142Z,34.20
2018-12-29T08:17:44.234Z,34.20
2018-12-29T08:18:44.125Z,33.09
2018-12-29T08:19:44.109Z,32.09
2018-12-29T08:20:44.100Z,32.09
2018-12-29T08:21:44.089Z,34.09
2018-12-29T08:22:44.077Z,33.29
2018-12-29T08:23:44.067Z,30.29
2018-12-29T08:24:44.054Z,32.90
2018-12-29T08:25:44.043Z,33.00
2018-12-29T08:26:44.032Z,35.59
2018-12-29T08:27:44.023Z,33.50
2018-12-29T08:28:45.264Z,34.20
2018-12-29T08:29:44.000Z,34.90
2018-12-29T08:30:43.992Z,34.90
2018-12-29T08:31:44.045Z,33.20
2018-12-29T08:32:43.975Z,33.70
2018-12-29T08:33:43.958Z,30.70
2018-12-29T08:34:43.947Z,32.20
2018-12-29T08:35:43.937Z,32.09
2018-12-29T08:36:43.926Z,32.20
2018-12-29T08:37:43.914Z,32.79
2018-12-29T08:38:43.903Z,31.70
2018-12-29T08:39:43.892Z,32.20
2018-12-29T08:40:43.882Z,31.50
2018-12-29T08:41:43.870Z,30.89
2018-12-29T08:42:43.859Z,35.59
2018-12-29T08:43:43.849Z,35.79
2018-12-29T08:44:43.838Z,33.90
2018-12-29T08:45:43.828Z,35.20
2018-12-29T08:46:43.817Z,34.20
2018-12-29T08:47:43.807Z,35.50
2018-12-29T08:48:43.792Z,35.79
2018-12-29T08:49:43.783Z,33.00
2018-12-29T08:50:43.773Z,33.00
2018-12-29T08:51:43.761Z,34.09
2018-12-29T08:52:43.752Z,35.59
2018-12-29T08:53:43.741Z,34.59
2018-12-29T08:54:43.729Z,33.29
2018-12-29T08:55:43.721Z,33.90
2018-12-29T08:56:43.708Z,31.70
2018-12-29T08:57:43.695Z,33.40
2018-12-29T08:58:43.687Z,33.70
2018-12-29T08:59:43.676Z,31.79
2018-12-29T09:00:43.663Z,32.40
2018-12-29T09:01:43.654Z,33.29
2018-12-29T09:02:43.645Z,33.29
2018-12-29T09:03:43.634Z,31.89
2018-12-29T09:04:43.622Z,32.70
2018-12-29T09:05:43.611Z,33.00
2018-12-29T09:06:43.599Z,31.60
2018-12-29T09:07:43.588Z,32.40
2018-12-29T09:08:43.580Z,33.59
2018-12-29T09:09:43.567Z,31.29
2018-12-29T09:10:43.555Z,33.59
2018-12-29T09:11:43.545Z,33.79
2018-12-29T09:12:43.535Z,33.50
2018-12-29T09:13:43.523Z,35.00
2018-12-29T09:14:43.515Z,34.59
2018-12-29T09:15:43.503Z,35.20
2018-12-29T09:16:43.499Z,33.70
2018-12-29T09:17:43.482Z,33.29
2018-12-29T09:18:49.670Z,33.40
2018-12-29T09:20:04.645Z,26.10
2018-12-29T09:21:04.633Z,28.20
2018-12-29T09:22:04.619Z,31.79
2018-12-29T09:23:04.609Z,33.20
2018-12-29T09:24:04.601Z,33.59
2018-12-29T09:25:04.591Z,33.59
2018-12-29T09:26:04.802Z,33.79
2018-12-29T09:27:04.570Z,34.40
2018-12-29T09:28:04.555Z,36.09
2018-12-29T09:29:04.548Z,35.79
2018-12-29T09:30:04.536Z,35.29
2018-12-29T09:31:04.530Z,32.59
2018-12-29T09:32:04.511Z,35.09
2018-12-29T09:33:04.503Z,33.90
2018-12-29T09:34:04.496Z,37.00
2018-12-29T09:35:04.481Z,35.40
2018-12-29T09:36:04.467Z,36.00
2018-12-29T09:37:04.459Z,35.79
2018-12-29T09:38:04.448Z,35.00
2018-12-29T09:39:04.436Z,34.50
2018-12-29T09:40:04.428Z,33.59
2018-12-29T09:41:04.414Z,33.09
2018-12-29T09:42:04.405Z,32.09
2018-12-29T09:43:04.395Z,31.89
2018-12-29T09:44:04.382Z,34.00
2018-12-29T09:45:04.372Z,35.50
2018-12-29T09:46:04.362Z,35.00
2018-12-29T09:47:04.350Z,34.79
2018-12-29T09:48:04.337Z,35.90
2018-12-29T09:49:04.328Z,33.50
2018-12-29T09:50:04.315Z,35.59
2018-12-29T09:51:04.305Z,34.79
2018-12-29T09:52:04.294Z,33.79
2018-12-29T09:53:04.286Z,32.59
2018-12-29T09:54:04.274Z,32.90
2018-12-29T09:55:04.261Z,33.90
2018-12-29T09:56:04.250Z,34.90
2018-12-29T09:57:04.240Z,36.50
2018-12-29T09:58:04.228Z,32.79
2018-12-29T09:59:04.217Z,34.09
2018-12-29T10:00:04.209Z,35.00
2018-12-29T10:01:04.197Z,33.00
2018-12-29T10:02:04.185Z,32.50
2018-12-29T10:03:04.176Z,34.29
2018-12-29T10:04:04.163Z,36.00
2018-12-29T10:05:04.153Z,33.79
2018-12-29T10:06:04.141Z,36.59
2018-12-29T10:07:04.132Z,36.00
2018-12-29T10:08:04.119Z,34.79
2018-12-29T10:09:04.109Z,35.40
2018-12-29T10:10:04.101Z,33.70
2018-12-29T10:11:04.094Z,29.60
2018-12-29T10:12:04.076Z,32.20
2018-12-29T10:13:04.066Z,31.39
2018-12-29T10:14:04.056Z,33.79
2018-12-29T10:15:04.044Z,32.70
2018-12-29T10:16:04.040Z,31.60
2018-12-29T10:17:04.028Z,29.89
2018-12-29T10:18:04.079Z,32.20
2018-12-29T10:19:04.002Z,32.09
2018-12-29T10:20:03.991Z,35.09
2018-12-29T10:21:03.979Z,34.70
2018-12-29T10:22:03.967Z,33.50
2018-12-29T10:23:03.960Z,34.20
2018-12-29T10:24:03.948Z,36.29
2018-12-29T10:25:03.935Z,31.79
2018-12-29T10:26:03.925Z,29.20
2018-12-29T10:27:03.915Z,32.70
2018-12-29T10:28:03.903Z,32.70
2018-12-29T10:29:03.895Z,33.29
2018-12-29T10:30:03.880Z,34.59
2018-12-29T10:31:03.871Z,30.39
2018-12-29T10:32:03.859Z,31.89
2018-12-29T10:33:03.847Z,33.20
2018-12-29T10:34:03.838Z,32.59
2018-12-29T10:35:03.826Z,35.59
2018-12-29T10:36:03.816Z,32.70
2018-12-29T10:37:03.804Z,32.79
2018-12-29T10:38:03.794Z,32.90
2018-12-29T10:39:03.783Z,34.09
2018-12-29T10:40:03.770Z,34.50
2018-12-29T10:41:03.762Z,33.20
2018-12-29T10:42:03.748Z,34.90
2018-12-29T10:43:03.737Z,32.40
2018-12-29T10:44:03.725Z,34.09
2018-12-29T10:45:03.713Z,33.20
2018-12-29T10:46:03.708Z,32.59
2018-12-29T10:47:03.693Z,35.40
2018-12-29T10:48:03.681Z,35.29
2018-12-29T10:49:03.669Z,35.29
2018-12-29T10:50:03.659Z,35.00
2018-12-29T10:51:03.648Z,35.00
2018-12-29T10:52:03.639Z,33.50
2018-12-29T10:53:03.625Z,33.79
2018-12-29T10:54:03.614Z,34.00
2018-12-29T10:55:03.608Z,33.79
2018-12-29T10:56:03.594Z,34.29
2018-12-29T10:57:03.582Z,29.39
2018-12-29T10:58:03.570Z,31.39
2018-12-29T10:59:03.562Z,32.20
2018-12-29T11:00:03.549Z,31.70
2018-12-29T11:01:03.538Z,31.29
2018-12-29T11:02:03.528Z,32.79
2018-12-29T11:03:03.518Z,31.60
2018-12-29T11:04:03.582Z,31.39
2018-12-29T11:05:03.495Z,30.39
2018-12-29T11:06:03.486Z,30.29
2018-12-29T11:07:03.474Z,29.39
2018-12-29T11:08:03.460Z,29.60
2018-12-29T11:09:03.453Z,29.89
2018-12-29T11:10:03.439Z,29.60
2018-12-29T11:11:03.429Z,30.89
2018-12-29T11:12:03.419Z,30.20
2018-12-29T11:13:03.407Z,30.79
2018-12-29T11:14:03.396Z,28.29
2018-12-29T11:15:03.384Z,28.70
2018-12-29T11:16:03.376Z,29.50
2018-12-29T11:17:03.365Z,30.79
2018-12-29T11:18:03.356Z,29.89
2018-12-29T11:19:03.344Z,27.79
2018-12-29T11:20:03.335Z,29.50
2018-12-29T11:21:03.327Z,28.20
2018-12-29T11:22:03.309Z,28.39
2018-12-29T11:23:03.299Z,29.39
2018-12-29T11:24:03.285Z,29.70
2018-12-29T11:25:03.276Z,28.79
2018-12-29T11:26:03.266Z,28.89
2018-12-29T11:27:03.256Z,28.89
2018-12-29T11:28:03.243Z,28.39
2018-12-29T11:29:03.233Z,26.79
2018-12-29T11:30:03.222Z,27.60
2018-12-29T11:31:03.210Z,28.10
2018-12-29T11:32:03.198Z,30.39
2018-12-29T11:33:03.189Z,28.79
2018-12-29T11:34:03.177Z,30.39
2018-12-29T11:35:03.166Z,29.39
2018-12-29T11:36:03.156Z,28.20
2018-12-29T11:37:03.144Z,25.10
2018-12-29T11:38:03.133Z,25.39
2018-12-29T11:39:03.121Z,26.60
2018-12-29T11:40:03.115Z,27.39
2018-12-29T11:41:03.100Z,26.29
2018-12-29T11:42:03.091Z,25.20
2018-12-29T11:43:03.076Z,26.29
2018-12-29T11:44:03.069Z,27.79
2018-12-29T11:45:03.054Z,27.60
2018-12-29T11:46:03.042Z,25.79
2018-12-29T11:47:03.034Z,26.20
2018-12-29T11:48:03.023Z,24.60
2018-12-29T11:49:03.011Z,25.20
2018-12-29T11:50:03.000Z,24.29
2018-12-29T11:51:02.988Z,25.20
2018-12-29T11:52:02.978Z,25.29
2018-12-29T11:53:02.966Z,25.89
2018-12-29T11:54:02.957Z,24.70
2018-12-29T11:55:02.943Z,24.20
2018-12-29T11:56:02.934Z,24.00
2018-12-29T11:57:02.924Z,26.60
2018-12-29T11:58:02.913Z,26.79
2018-12-29T11:59:02.901Z,28.00
2018-12-29T12:00:02.889Z,26.29
2018-12-29T12:01:02.876Z,27.29
2018-12-29T12:02:02.868Z,28.70
2018-12-29T12:03:02.862Z,27.79
2018-12-29T12:04:02.844Z,26.79
2018-12-29T12:05:02.836Z,27.10
2018-12-29T12:06:02.824Z,26.70
2018-12-29T12:07:02.811Z,26.39
2018-12-29T12:08:02.803Z,27.29
2018-12-29T12:09:02.789Z,26.60
2018-12-29T12:10:02.781Z,28.29
2018-12-29T12:11:02.770Z,25.79
2018-12-29T12:12:02.758Z,26.60
2018-12-29T12:13:02.747Z,28.50
2018-12-29T12:14:02.737Z,29.10
2018-12-29T12:15:02.725Z,27.79
2018-12-29T12:16:02.715Z,29.00
2018-12-29T12:17:02.703Z,28.79
2018-12-29T12:18:02.691Z,28.29
2018-12-29T12:19:02.687Z,27.00
2018-12-29T12:20:02.673Z,26.10
2018-12-29T12:21:02.661Z,26.20
2018-12-29T12:22:02.648Z,26.29
2018-12-29T12:23:02.644Z,27.50
2018-12-29T12:24:02.629Z,27.10
2018-12-29T12:25:02.616Z,27.10
2018-12-29T12:26:02.606Z,29.20
2018-12-29T12:27:02.597Z,26.29
2018-12-29T12:28:02.583Z,26.79
2018-12-29T12:29:02.573Z,26.00
2018-12-29T12:30:02.571Z,25.39
2018-12-29T12:31:02.551Z,25.00
2018-12-29T12:32:02.545Z,25.20
2018-12-29T12:33:02.529Z,25.89
2018-12-29T12:34:02.521Z,25.79
2018-12-29T12:35:02.512Z,25.70
2018-12-29T12:36:02.503Z,26.70
2018-12-29T12:37:02.485Z,26.89
2018-12-29T12:38:02.476Z,25.39
2018-12-29T12:39:02.466Z,24.60
2018-12-29T12:40:02.454Z,25.20
2018-12-29T12:41:02.443Z,23.79
2018-12-29T12:42:02.434Z,26.29
2018-12-29T12:43:02.423Z,25.79
2018-12-29T12:44:02.411Z,26.29
2018-12-29T12:45:02.400Z,26.20
2018-12-29T12:46:02.388Z,25.10
2018-12-29T12:47:02.378Z,25.29
2018-12-29T12:48:05.153Z,25.60
2018-12-29T12:49:02.360Z,26.70
2018-12-29T12:50:02.345Z,25.60
2018-12-29T12:51:02.337Z,25.70
2018-12-29T12:52:02.324Z,25.20
2018-12-29T12:53:02.312Z,25.29